Time;durP1;ratioP1;P1;durP2;ratioP2;P2;SDS_P1;SDS_P2;PMS_P1;PMS_P2;Temp;Humidity;BMP_temperature;BMP_pressure;BME280_temperature;BME280_humidity;BME280_pressure;Samples;Min_cycle;Max_cycle;Signal;HPM_P1;HPM_P2
2022/06/16 00:02:23;;;;;;;78.88;46.80;;;;;;;;;;6321608;28;20062;-76
2022/06/16 00:05:27;;;;;;;26.45;19.73;;;;;;;;;;6319639;28;20072;-76
2022/06/16 00:08:30;;;;;;;28.15;18.08;;;;;;;;;;6321068;28;20065;-75
2022/06/16 00:11:32;;;;;;;;;;;;;;;;;;6320270;28;20070;-74
2022/06/16 00:14:34;;;;;;;54.65;29.95;;;;;;;;;;6320230;28;19916;-74
2022/06/16 00:17:35;;;;;;;23.77;14.45;;;;;;;;;;6319935;28;20047;-74
2022/06/16 00:20:37;;;;;;;16.25;9.80;;;;;;;;;;6321323;28;20358;-73
2022/06/16 00:23:40;;;;;;;27.05;14.32;;;;;;;;;;6321282;28;20056;-75
2022/06/16 00:26:42;;;;;;;6.43;5.07;;;;;;;;;;6317088;28;20047;-77
2022/06/16 00:29:44;;;;;;;5.47;4.55;;;;;;;;;;6321145;28;20074;-75
2022/06/16 00:32:45;;;;;;;7.57;4.88;;;;;;;;;;6317235;28;20071;-75
2022/06/16 00:35:47;;;;;;;5.68;4.63;;;;;;;;;;6321307;28;20299;-75
2022/06/16 00:38:50;;;;;;;11.05;5.93;;;;;;;;;;6318235;28;20063;-78
2022/06/16 00:41:52;;;;;;;12.98;5.30;;;;;;;;;;6320557;28;20047;-78
2022/06/16 00:44:56;;;;;;;8.55;4.88;;;;;;;;;;6321524;28;20048;-78
2022/06/16 00:47:58;;;;;;;13.25;5.20;;;;;;;;;;6324723;28;20327;-78
2022/06/16 00:51:06;;;;;;;7.78;4.68;;;;;;;;;;6319638;28;20052;-78
2022/06/16 00:54:12;;;;;;;7.72;4.43;;;;;;;;;;6321630;28;20067;-79
2022/06/16 00:57:15;;;;;;;7.00;4.00;;;;;;;;;;6321915;28;20056;-77
2022/06/16 01:00:20;;;;;;;8.00;4.40;;;;;;;;;;6323227;28;20044;-75
2022/06/16 01:06:38;;;;;;;6.93;5.10;;;;;;;;;;6327049;28;20064;-78
2022/06/16 01:09:42;;;;;;;7.55;5.13;;;;;;;;;;6325667;28;20078;-77
2022/06/16 01:16:24;;;;;;;7.03;4.40;;;;;;;;;;6322615;28;20124;-77
2022/06/16 01:19:52;;;;;;;6.60;5.10;;;;;;;;;;6321847;28;20110;-77
2022/06/16 01:23:41;;;;;;;6.70;4.68;;;;;;;;;;6322321;28;20263;-78
2022/06/16 01:27:26;;;;;;;8.85;4.72;;;;;;;;;;6215414;28;20288;-77
2022/06/16 01:30:33;;;;;;;8.25;5.20;;;;;;;;;;6152021;28;20354;-77
2022/06/16 01:33:41;;;;;;;5.65;5.05;;;;;;;;;;6153397;28;20055;-76
2022/06/16 01:36:47;;;;;;;9.25;4.80;;;;;;;;;;6150207;28;20064;-77
2022/06/16 01:39:57;;;;;;;11.60;5.20;;;;;;;;;;6151365;29;20102;-77
2022/06/16 01:43:03;;;;;;;5.80;4.68;;;;;;;;;;6152851;28;20047;-78
2022/06/16 01:46:10;;;;;;;9.77;4.90;;;;;;;;;;6153945;28;20047;-78
2022/06/16 01:49:17;;;;;;;10.25;4.20;;;;;;;;;;6150625;28;20144;-81
2022/06/16 01:52:22;;;;;;;7.95;4.43;;;;;;;;;;6150174;28;20055;-77
2022/06/16 01:55:28;;;;;;;8.00;4.40;;;;;;;;;;6155814;28;20051;-77
2022/06/16 01:58:34;;;;;;;6.25;4.22;;;;;;;;;;6152683;28;20469;-77
2022/06/16 02:01:43;;;;;;;8.23;4.20;;;;;;;;;;6262189;28;20068;-77
2022/06/16 02:04:47;;;;;;;7.10;4.68;;;;;;;;;;6280094;28;20060;-77
2022/06/16 02:07:52;;;;;;;4.95;4.20;;;;;;;;;;6324219;28;20055;-77
2022/06/16 02:10:56;;;;;;;7.63;4.40;;;;;;;;;;6327385;28;20243;-77
2022/06/16 02:14:06;;;;;;;5.25;4.75;;;;;;;;;;6327517;28;20066;-77
2022/06/16 02:17:10;;;;;;;6.20;4.35;;;;;;;;;;6330109;28;20943;-76
2022/06/16 02:20:12;;;;;;;6.97;4.38;;;;;;;;;;6326173;28;20059;-76
2022/06/16 02:23:14;;;;;;;9.52;5.28;;;;;;;;;;6326916;28;20104;-76
2022/06/16 02:26:16;;;;;;;7.47;4.68;;;;;;;;;;6323640;28;20056;-78
2022/06/16 02:29:26;;;;;;;7.00;5.15;;;;;;;;;;6327497;28;20071;-76
2022/06/16 02:32:36;;;;;;;5.65;4.70;;;;;;;;;;6326476;28;20056;-76
2022/06/16 02:35:44;;;;;;;5.97;4.50;;;;;;;;;;6326276;28;20067;-76
2022/06/16 02:38:54;;;;;;;6.85;4.90;;;;;;;;;;6327870;28;20104;-76
2022/06/16 02:42:06;;;;;;;9.57;4.65;;;;;;;;;;6322545;28;20056;-78
2022/06/16 02:45:12;;;;;;;8.35;5.15;;;;;;;;;;6327184;28;20044;-78
2022/06/16 02:48:18;;;;;;;8.55;4.80;;;;;;;;;;6325350;28;20052;-79
2022/06/16 02:51:24;;;;;;;5.95;4.95;;;;;;;;;;6324400;28;20223;-78
2022/06/16 02:54:30;;;;;;;6.03;4.95;;;;;;;;;;6326950;28;20343;-76
2022/06/16 02:57:35;;;;;;;5.70;5.20;;;;;;;;;;6324951;28;20264;-76
2022/06/16 03:00:40;;;;;;;8.80;4.88;;;;;;;;;;6330250;28;20044;-75
2022/06/16 03:03:43;;;;;;;6.78;4.97;;;;;;;;;;6323550;28;20048;-78
2022/06/16 03:06:46;;;;;;;8.20;4.80;;;;;;;;;;6327079;28;20048;-76
2022/06/16 03:09:48;;;;;;;9.18;5.35;;;;;;;;;;6326141;28;20345;-75
2022/06/16 03:12:49;;;;;;;5.63;4.90;;;;;;;;;;6330840;28;20365;-75
2022/06/16 03:15:54;;;;;;;6.32;4.30;;;;;;;;;;6326951;28;20097;-76
2022/06/16 03:18:57;;;;;;;6.80;4.22;;;;;;;;;;6327435;28;20048;-78
2022/06/16 03:21:58;;;;;;;9.73;4.43;;;;;;;;;;6327755;28;20047;-76
2022/06/16 03:25:00;;;;;;;10.60;4.97;;;;;;;;;;6324006;28;20230;-77
2022/06/16 03:28:02;;;;;;;6.97;4.65;;;;;;;;;;6325447;28;20117;-76
2022/06/16 03:31:04;;;;;;;8.05;4.78;;;;;;;;;;6326585;28;20039;-76
2022/06/16 03:34:07;;;;;;;8.82;5.18;;;;;;;;;;6324743;28;20114;-76
2022/06/16 03:37:09;;;;;;;6.53;4.28;;;;;;;;;;6325765;28;20051;-76
2022/06/16 03:40:13;;;;;;;7.95;4.55;;;;;;;;;;6326628;28;20273;-76
2022/06/16 03:43:15;;;;;;;6.53;4.50;;;;;;;;;;6323614;28;20151;-77
2022/06/16 03:46:16;;;;;;;5.93;3.83;;;;;;;;;;6322455;28;20050;-76
2022/06/16 03:49:19;;;;;;;8.73;4.20;;;;;;;;;;6326813;28;20101;-77
2022/06/16 03:52:21;;;;;;;9.07;4.32;;;;;;;;;;6323495;28;20040;-76
2022/06/16 03:55:23;;;;;;;6.65;3.90;;;;;;;;;;6327916;28;20050;-76
2022/06/16 03:58:25;;;;;;;5.38;4.20;;;;;;;;;;6327193;28;20121;-76
2022/06/16 04:01:27;;;;;;;7.10;4.18;;;;;;;;;;6326713;28;20044;-77
2022/06/16 04:04:30;;;;;;;6.28;4.72;;;;;;;;;;6325912;28;20062;-76
2022/06/16 04:07:31;;;;;;;6.55;4.55;;;;;;;;;;6325827;28;20388;-76
2022/06/16 04:10:34;;;;;;;5.32;4.07;;;;;;;;;;6324751;28;20348;-76
2022/06/16 04:13:35;;;;;;;7.97;4.47;;;;;;;;;;6321078;28;20323;-77
2022/06/16 04:16:39;;;;;;;5.80;4.43;;;;;;;;;;6323720;28;20055;-76
2022/06/16 04:20:11;;;;;;;4.72;4.13;;;;;;;;;;6322906;28;20056;-77
2022/06/16 04:23:03;;;;;;;6.38;3.92;;;;;;;;;;6325642;28;20044;-76
2022/06/16 04:26:05;;;;;;;8.38;5.03;;;;;;;;;;6320928;28;20218;-76
2022/06/16 04:29:07;;;;;;;6.18;4.28;;;;;;;;;;6326552;28;20093;-76
2022/06/16 04:32:09;;;;;;;6.13;4.20;;;;;;;;;;6324082;28;20063;-76
2022/06/16 04:35:13;;;;;;;7.15;5.18;;;;;;;;;;6326439;28;20464;-76
2022/06/16 04:38:14;;;;;;;6.28;5.13;;;;;;;;;;6326185;28;20040;-77
2022/06/16 04:41:16;;;;;;;7.70;4.50;;;;;;;;;;6324650;28;20101;-76
2022/06/16 04:44:18;;;;;;;10.55;5.03;;;;;;;;;;6327138;28;20094;-76
2022/06/16 04:47:19;;;;;;;8.43;4.68;;;;;;;;;;6322550;28;20239;-78
2022/06/16 04:50:23;;;;;;;7.13;4.22;;;;;;;;;;6324137;28;20052;-77
2022/06/16 04:53:24;;;;;;;5.63;4.43;;;;;;;;;;6325185;28;20100;-77
2022/06/16 04:56:26;;;;;;;9.57;4.25;;;;;;;;;;6322988;28;20051;-77
2022/06/16 04:59:27;;;;;;;8.20;4.63;;;;;;;;;;6327485;28;20052;-76
2022/06/16 05:02:29;;;;;;;5.78;4.60;;;;;;;;;;6323110;28;20494;-78
2022/06/16 05:05:32;;;;;;;6.85;4.22;;;;;;;;;;6321832;28;20113;-79
2022/06/16 05:08:34;;;;;;;6.63;4.45;;;;;;;;;;6320577;28;20063;-76
2022/06/16 05:11:35;;;;;;;9.95;5.55;;;;;;;;;;6326382;28;20044;-77
2022/06/16 05:14:38;;;;;;;8.35;5.40;;;;;;;;;;6318626;28;20119;-77
2022/06/16 05:17:40;;;;;;;6.88;4.70;;;;;;;;;;6322201;28;20048;-76
2022/06/16 05:20:43;;;;;;;9.00;5.32;;;;;;;;;;6324592;28;20668;-77
2022/06/16 05:23:45;;;;;;;11.82;6.20;;;;;;;;;;6326838;28;20278;-77
2022/06/16 05:26:47;;;;;;;11.30;5.65;;;;;;;;;;6322037;28;20273;-74
2022/06/16 05:29:48;;;;;;;10.38;5.45;;;;;;;;;;6322292;28;20054;-74
2022/06/16 05:32:50;;;;;;;9.07;6.07;;;;;;;;;;6321773;28;20521;-75
2022/06/16 05:36:01;;;;;;;11.63;6.65;;;;;;;;;;6322710;28;20056;-75
2022/06/16 05:39:03;;;;;;;9.55;6.55;;;;;;;;;;6325062;28;20048;-73
2022/06/16 05:42:05;;;;;;;7.75;6.28;;;;;;;;;;6322452;28;20403;-73
2022/06/16 05:45:09;;;;;;;11.73;6.78;;;;;;;;;;6324183;28;20044;-74
2022/06/16 05:48:11;;;;;;;8.88;7.10;;;;;;;;;;6324816;28;20051;-74
2022/06/16 05:51:16;;;;;;;10.27;6.72;;;;;;;;;;6324073;28;20050;-73
2022/06/16 05:54:29;;;;;;;11.23;7.70;;;;;;;;;;6328896;28;20071;-73
2022/06/16 05:57:31;;;;;;;14.70;7.57;;;;;;;;;;6327649;28;20074;-75
2022/06/16 06:00:33;;;;;;;12.05;8.35;;;;;;;;;;6326130;28;20040;-73
2022/06/16 06:03:34;;;;;;;11.90;7.63;;;;;;;;;;6328727;28;20139;-72
2022/06/16 06:06:37;;;;;;;10.73;7.35;;;;;;;;;;6323560;28;20327;-75
2022/06/16 06:16:26;;;;;;;11.65;7.30;;;;;;;;;;6330054;28;20036;-74
2022/06/16 06:19:27;;;;;;;9.52;7.80;;;;;;;;;;6329233;28;20051;-73
2022/06/16 06:22:31;;;;;;;10.00;7.70;;;;;;;;;;6325657;28;21614;-74
2022/06/16 06:25:32;;;;;;;8.82;7.53;;;;;;;;;;6321076;28;20064;-74
2022/06/16 06:28:34;;;;;;;8.75;7.25;;;;;;;;;;6326395;28;20117;-74
2022/06/16 06:31:35;;;;;;;11.25;7.78;;;;;;;;;;6329884;28;20313;-73
2022/06/16 06:34:38;;;;;;;11.10;7.53;;;;;;;;;;6332044;28;20052;-73
2022/06/16 06:37:41;;;;;;;11.80;8.27;;;;;;;;;;6327663;28;20048;-73
2022/06/16 06:40:42;;;;;;;19.33;9.40;;;;;;;;;;6328366;28;20101;-73
2022/06/16 06:43:44;;;;;;;21.25;9.05;;;;;;;;;;6327676;28;20309;-73
2022/06/16 06:46:46;;;;;;;10.10;7.75;;;;;;;;;;6322322;28;20063;-73
2022/06/16 06:49:48;;;;;;;10.23;8.93;;;;;;;;;;6328684;28;20235;-73
2022/06/16 06:52:51;;;;;;;16.73;8.70;;;;;;;;;;6327517;28;20052;-72
2022/06/16 06:55:53;;;;;;;16.65;8.90;;;;;;;;;;6328389;28;20051;-73
2022/06/16 06:58:55;;;;;;;17.35;10.43;;;;;;;;;;6328128;28;20105;-73
2022/06/16 07:01:56;;;;;;;12.88;9.50;;;;;;;;;;6328034;28;20050;-74
2022/06/16 07:04:58;;;;;;;13.10;9.30;;;;;;;;;;6326428;28;20075;-73
2022/06/16 07:08:01;;;;;;;18.42;12.18;;;;;;;;;;6324913;28;20382;-71
2022/06/16 07:11:03;;;;;;;12.55;9.27;;;;;;;;;;6323801;27;20048;-71
2022/06/16 07:14:05;;;;;;;12.68;9.40;;;;;;;;;;6323498;28;20048;-72
2022/06/16 07:17:06;;;;;;;10.35;8.55;;;;;;;;;;6325403;28;20118;-71
2022/06/16 07:20:13;;;;;;;12.75;7.45;;;;;;;;;;6327491;28;20101;-72
2022/06/16 07:23:18;;;;;;;12.43;8.43;;;;;;;;;;6326520;28;20160;-71
2022/06/16 07:26:20;;;;;;;12.90;8.80;;;;;;;;;;6322763;28;20051;-73
2022/06/16 07:29:22;;;;;;;11.48;8.15;;;;;;;;;;6323561;28;20105;-81
2022/06/16 07:32:24;;;;;;;11.52;8.55;;;;;;;;;;6325706;28;20054;-78
2022/06/16 07:35:25;;;;;;;10.35;7.80;;;;;;;;;;6325965;28;20047;-77
2022/06/16 07:38:28;;;;;;;10.88;7.97;;;;;;;;;;6324446;28;20051;-78
2022/06/16 07:41:34;;;;;;;11.60;7.60;;;;;;;;;;6321661;28;20117;-78
2022/06/16 07:44:36;;;;;;;9.10;6.53;;;;;;;;;;6327076;28;20346;-78
2022/06/16 07:47:38;;;;;;;10.70;7.50;;;;;;;;;;6320170;28;20067;-78
2022/06/16 07:50:40;;;;;;;12.73;8.23;;;;;;;;;;6320559;28;20066;-78
2022/06/16 07:53:43;;;;;;;10.57;8.13;;;;;;;;;;6325092;28;20101;-77
2022/06/16 07:56:44;;;;;;;;;;;;;;;;;;6317954;28;20056;-83
2022/06/16 07:59:48;;;;;;;7.60;6.57;;;;;;;;;;6315660;28;19927;-79
2022/06/16 08:02:50;;;;;;;10.60;7.13;;;;;;;;;;6310516;28;20139;-79
2022/06/16 08:05:51;;;;;;;11.77;7.65;;;;;;;;;;6315649;28;20187;-78
2022/06/16 08:08:55;;;;;;;11.60;6.97;;;;;;;;;;6312666;28;20056;-77
2022/06/16 08:12:07;;;;;;;11.45;6.88;;;;;;;;;;6309839;28;20153;-77
2022/06/16 08:15:10;;;;;;;11.40;7.20;;;;;;;;;;6312398;28;20066;-78
2022/06/16 08:18:13;;;;;;;12.70;6.28;;;;;;;;;;6313420;28;20066;-77
2022/06/16 08:21:15;;;;;;;13.00;6.50;;;;;;;;;;6324713;28;20055;-80
2022/06/16 08:24:18;;;;;;;8.57;6.38;;;;;;;;;;6325229;28;20085;-78
2022/06/16 08:27:23;;;;;;;10.80;6.85;;;;;;;;;;6322665;28;20044;-78
2022/06/16 08:30:25;;;;;;;11.60;6.00;;;;;;;;;;6321561;28;20049;-78
2022/06/16 08:33:27;;;;;;;14.98;7.18;;;;;;;;;;6322601;28;20052;-78
2022/06/16 08:36:29;;;;;;;9.20;6.80;;;;;;;;;;6324618;28;20069;-78
2022/06/16 08:39:32;;;;;;;10.88;6.90;;;;;;;;;;6321038;28;20101;-78
2022/06/16 08:42:40;;;;;;;8.18;6.20;;;;;;;;;;6327231;28;20048;-79
2022/06/16 08:45:48;;;;;;;13.35;6.90;;;;;;;;;;6323012;28;20052;-78
2022/06/16 08:48:58;;;;;;;11.82;8.00;;;;;;;;;;6323587;28;20056;-77
2022/06/16 08:52:11;;;;;;;15.43;7.38;;;;;;;;;;6324202;28;20390;-79
2022/06/16 08:55:21;;;;;;;9.38;6.70;;;;;;;;;;6319287;28;20104;-82
2022/06/16 08:58:28;;;;;;;10.95;6.90;;;;;;;;;;6322262;28;20052;-78
2022/06/16 09:01:35;;;;;;;10.98;6.10;;;;;;;;;;6321263;28;20052;-77
2022/06/16 09:04:40;;;;;;;10.50;6.80;;;;;;;;;;6321969;28;20285;-83
2022/06/16 09:07:50;;;;;;;8.48;7.60;;;;;;;;;;6323355;28;20040;-77
2022/06/16 09:10:59;;;;;;;7.93;6.75;;;;;;;;;;6322136;28;20117;-78
2022/06/16 09:14:14;;;;;;;9.82;7.10;;;;;;;;;;6322501;28;20058;-77
2022/06/16 09:17:23;;;;;;;8.25;6.68;;;;;;;;;;6323630;28;20196;-78
2022/06/16 09:20:30;;;;;;;11.18;7.10;;;;;;;;;;6318513;28;20060;-81
2022/06/16 09:23:43;;;;;;;13.43;6.28;;;;;;;;;;6316256;28;20059;-79
2022/06/16 09:26:47;;;;;;;;;;;;;;;;;;6324365;28;20056;-81
2022/06/16 09:29:51;;;;;;;9.48;7.32;;;;;;;;;;6320698;28;20367;-80
2022/06/16 09:32:56;;;;;;;16.42;10.35;;;;;;;;;;6320611;28;20270;-79
2022/06/16 09:36:01;;;;;;;7.72;6.38;;;;;;;;;;6322782;28;20056;-78
2022/06/16 09:39:09;;;;;;;14.55;6.88;;;;;;;;;;6322457;28;20111;-78
2022/06/16 09:42:36;;;;;;;14.52;9.80;;;;;;;;;;6321966;28;20097;-79
2022/06/16 09:45:43;;;;;;;13.30;8.02;;;;;;;;;;6320794;28;20294;-78
2022/06/16 09:48:50;;;;;;;13.57;8.30;;;;;;;;;;6319068;28;20055;-79
2022/06/16 09:51:55;;;;;;;10.07;6.60;;;;;;;;;;6319287;28;20052;-78
2022/06/16 09:55:01;;;;;;;12.20;9.23;;;;;;;;;;6318734;28;20056;-81
2022/06/16 09:58:10;;;;;;;13.70;9.73;;;;;;;;;;6322540;28;20452;-78
2022/06/16 10:01:15;;;;;;;11.60;10.38;;;;;;;;;;6321957;28;20219;-76
2022/06/16 10:04:17;;;;;;;15.02;8.85;;;;;;;;;;6319775;28;20744;-75
2022/06/16 10:07:24;;;;;;;14.00;8.02;;;;;;;;;;6322074;28;20056;-78
2022/06/16 10:10:33;;;;;;;11.00;8.57;;;;;;;;;;6321962;28;20880;-76
2022/06/16 10:13:38;;;;;;;13.98;9.02;;;;;;;;;;6326688;28;20048;-77
2022/06/16 10:16:48;;;;;;;14.60;9.30;;;;;;;;;;6328195;28;20059;-79
2022/06/16 10:19:51;;;;;;;11.38;7.55;;;;;;;;;;6325956;28;20047;-77
2022/06/16 10:23:03;;;;;;;16.23;10.18;;;;;;;;;;6325869;28;20059;-77
2022/06/16 10:26:06;;;;;;;;;;;;;;;;;;6326878;28;20117;-78
2022/06/16 10:29:21;;;;;;;12.02;9.48;;;;;;;;;;6326190;27;19916;-78
2022/06/16 10:32:41;;;;;;;11.07;7.20;;;;;;;;;;6329856;28;20209;-78
2022/06/16 10:35:47;;;;;;;16.23;11.50;;;;;;;;;;6330058;28;20055;-77
2022/06/16 10:39:08;;;;;;;14.85;9.05;;;;;;;;;;6322364;28;20044;-76
2022/06/16 10:42:17;;;;;;;13.90;11.00;;;;;;;;;;6325916;28;20052;-78
2022/06/16 10:45:24;;;;;;;16.08;10.80;;;;;;;;;;6328339;28;20044;-77
2022/06/16 10:48:30;;;;;;;14.07;10.80;;;;;;;;;;6326817;28;20044;-77
2022/06/16 10:51:36;;;;;;;14.73;10.77;;;;;;;;;;6329497;28;20052;-76
2022/06/16 10:54:45;;;;;;;15.07;13.27;;;;;;;;;;6325113;28;20048;-77
2022/06/16 10:57:50;;;;;;;15.57;12.13;;;;;;;;;;6324225;28;20381;-73
2022/06/16 11:01:03;;;;;;;14.05;9.43;;;;;;;;;;6320988;28;20323;-78
2022/06/16 11:04:07;;;;;;;9.57;8.27;;;;;;;;;;6323087;28;20044;-77
2022/06/16 11:07:12;;;;;;;9.95;8.57;;;;;;;;;;6321239;28;20116;-82
2022/06/16 11:10:18;;;;;;;15.43;8.80;;;;;;;;;;6323723;28;20056;-77
2022/06/16 11:13:23;;;;;;;13.35;7.10;;;;;;;;;;6323196;28;20044;-81
2022/06/16 11:16:29;;;;;;;13.63;9.05;;;;;;;;;;6324578;28;20103;-80
2022/06/16 11:19:35;;;;;;;9.70;8.65;;;;;;;;;;6324643;28;20122;-78
2022/06/16 11:22:40;;;;;;;15.80;11.73;;;;;;;;;;6323377;28;20044;-77
2022/06/16 11:25:42;;;;;;;13.57;8.73;;;;;;;;;;6319941;28;20063;-77
2022/06/16 11:28:46;;;;;;;17.35;12.75;;;;;;;;;;6324331;28;20113;-74
2022/06/16 11:32:01;;;;;;;12.23;10.57;;;;;;;;;;6322233;28;20056;-76
2022/06/16 11:35:03;;;;;;;12.65;9.48;;;;;;;;;;6322312;28;20047;-76
2022/06/16 11:38:13;;;;;;;17.75;11.02;;;;;;;;;;6327346;28;20052;-77
2022/06/16 11:41:15;;;;;;;11.48;10.27;;;;;;;;;;6321701;28;20337;-79
2022/06/16 11:44:30;;;;;;;15.55;14.02;;;;;;;;;;6321201;28;20056;-77
2022/06/16 11:47:41;;;;;;;19.65;13.45;;;;;;;;;;6321667;28;20295;-78
2022/06/16 11:50:49;;;;;;;14.68;12.48;;;;;;;;;;6319338;28;20322;-77
2022/06/16 11:54:03;;;;;;;15.07;13.18;;;;;;;;;;6319886;28;20276;-77
2022/06/16 11:57:14;;;;;;;12.40;8.90;;;;;;;;;;6320820;28;20086;-77
2022/06/16 12:00:21;;;;;;;12.67;11.20;;;;;;;;;;6323163;28;20055;-77
2022/06/16 12:03:49;;;;;;;14.23;12.82;;;;;;;;;;6319583;27;20048;-77
2022/06/16 12:07:06;;;;;;;13.20;9.13;;;;;;;;;;6318572;28;20057;-77
2022/06/16 12:10:13;;;;;;;15.98;11.98;;;;;;;;;;6322758;28;20043;-77
2022/06/16 12:13:20;;;;;;;12.20;9.10;;;;;;;;;;6323136;28;20074;-77
2022/06/16 12:16:26;;;;;;;10.95;8.63;;;;;;;;;;6323469;28;20054;-77
2022/06/16 12:19:37;;;;;;;11.98;10.77;;;;;;;;;;6321664;28;20052;-77
2022/06/16 12:22:46;;;;;;;11.98;10.73;;;;;;;;;;6318980;28;20080;-77
2022/06/16 12:25:53;;;;;;;18.02;10.90;;;;;;;;;;6319549;28;20079;-77
2022/06/16 12:29:06;;;;;;;13.57;10.00;;;;;;;;;;6322131;28;20047;-77
2022/06/16 12:32:17;;;;;;;11.30;9.65;;;;;;;;;;6323481;28;20056;-77
2022/06/16 12:35:26;;;;;;;11.07;8.97;;;;;;;;;;6319793;28;20349;-77
2022/06/16 12:38:31;;;;;;;8.70;7.85;;;;;;;;;;6321614;28;20101;-77
2022/06/16 12:41:35;;;;;;;9.35;7.50;;;;;;;;;;6319228;28;20043;-78
2022/06/16 12:44:41;;;;;;;11.25;7.85;;;;;;;;;;6318493;28;20052;-75
2022/06/16 12:47:47;;;;;;;10.85;9.48;;;;;;;;;;6320541;28;20056;-76
2022/06/16 12:50:54;;;;;;;8.57;7.78;;;;;;;;;;6320276;28;20323;-76
2022/06/16 12:53:59;;;;;;;18.85;9.38;;;;;;;;;;6322454;28;20052;-76
2022/06/16 12:57:04;;;;;;;15.52;10.05;;;;;;;;;;6319731;28;20048;-76
2022/06/16 13:00:10;;;;;;;15.23;11.35;;;;;;;;;;6319082;28;20052;-75
2022/06/16 13:03:19;;;;;;;11.98;9.35;;;;;;;;;;6325110;28;20327;-76
2022/06/16 13:06:23;;;;;;;12.82;9.73;;;;;;;;;;6328406;28;20056;-77
2022/06/16 13:09:25;;;;;;;10.48;8.65;;;;;;;;;;6325079;28;20129;-77
2022/06/16 13:12:26;;;;;;;;;;;;;;;;;;6328205;28;20063;-77
2022/06/16 13:15:31;;;;;;;14.10;10.68;;;;;;;;;;6325443;28;20072;-77
2022/06/16 13:18:42;;;;;;;13.00;10.70;;;;;;;;;;6321071;28;20058;-77
2022/06/16 13:21:51;;;;;;;10.48;9.27;;;;;;;;;;6323780;28;20220;-76
2022/06/16 13:24:55;;;;;;;10.48;9.48;;;;;;;;;;6323557;28;20043;-74
2022/06/16 13:27:56;;;;;;;10.20;8.65;;;;;;;;;;6323651;28;20101;-76
2022/06/16 13:31:12;;;;;;;10.48;7.95;;;;;;;;;;6323927;28;20204;-77
2022/06/16 13:34:15;;;;;;;14.75;7.65;;;;;;;;;;6322264;28;20405;-77
2022/06/16 13:37:30;;;;;;;14.57;8.75;;;;;;;;;;6326081;28;20235;-77
2022/06/16 13:40:32;;;;;;;9.93;8.93;;;;;;;;;;6318511;28;20055;-77
2022/06/16 13:43:36;;;;;;;10.15;9.10;;;;;;;;;;6322860;28;20431;-77
2022/06/16 13:47:20;;;;;;;15.00;8.40;;;;;;;;;;6322043;28;20048;-77
2022/06/16 13:50:24;;;;;;;14.77;8.00;;;;;;;;;;6319321;28;20052;-76
2022/06/16 13:53:29;;;;;;;11.32;7.65;;;;;;;;;;6319741;28;20066;-75
2022/06/16 13:56:33;;;;;;;11.73;8.60;;;;;;;;;;6323226;28;20059;-77
2022/06/16 13:59:38;;;;;;;14.40;8.23;;;;;;;;;;6321700;28;20061;-77
2022/06/16 14:02:56;;;;;;;12.07;8.48;;;;;;;;;;6318116;28;21141;-76
2022/06/16 14:06:06;;;;;;;9.65;8.45;;;;;;;;;;6325718;28;20062;-76
2022/06/16 14:09:13;;;;;;;9.40;7.80;;;;;;;;;;6324746;28;20067;-76
2022/06/16 14:12:19;;;;;;;10.55;8.00;;;;;;;;;;6322608;28;20059;-76
2022/06/16 14:15:54;;;;;;;8.95;7.93;;;;;;;;;;6322775;28;20077;-77
2022/06/16 14:19:16;;;;;;;10.40;7.90;;;;;;;;;;6318254;28;20149;-77
2022/06/16 14:22:19;;;;;;;7.93;7.20;;;;;;;;;;6315385;28;20080;-76
2022/06/16 14:25:24;;;;;;;9.98;7.13;;;;;;;;;;6319530;28;20056;-76
2022/06/16 14:28:29;;;;;;;10.48;8.38;;;;;;;;;;6315343;28;20440;-76
2022/06/16 14:31:32;;;;;;;11.18;7.55;;;;;;;;;;6321906;28;20086;-76
2022/06/16 14:34:37;;;;;;;13.80;7.72;;;;;;;;;;6322423;28;20045;-75
2022/06/16 14:37:43;;;;;;;11.52;6.85;;;;;;;;;;6318963;28;20059;-77
2022/06/16 14:40:50;;;;;;;9.93;7.82;;;;;;;;;;6318576;28;20236;-77
2022/06/16 14:43:58;;;;;;;9.68;7.63;;;;;;;;;;6322077;28;20044;-76
2022/06/16 14:47:09;;;;;;;10.15;7.30;;;;;;;;;;6311556;28;20059;-77
2022/06/16 14:50:13;;;;;;;15.60;7.63;;;;;;;;;;6318241;28;21207;-77
2022/06/16 14:53:16;;;;;;;14.75;7.45;;;;;;;;;;6317521;28;20282;-76
2022/06/16 14:56:22;;;;;;;8.43;6.95;;;;;;;;;;6317115;28;20081;-77
2022/06/16 14:59:26;;;;;;;15.05;7.93;;;;;;;;;;6324826;28;20079;-76
2022/06/16 15:02:30;;;;;;;11.88;6.93;;;;;;;;;;6307355;28;20645;-76
2022/06/16 15:05:35;;;;;;;8.70;7.85;;;;;;;;;;6326440;28;20111;-76
2022/06/16 15:08:41;;;;;;;13.40;7.50;;;;;;;;;;6325071;28;20071;-76
2022/06/16 15:11:44;;;;;;;10.23;8.07;;;;;;;;;;6319879;28;20039;-76
2022/06/16 15:14:47;;;;;;;8.98;7.35;;;;;;;;;;6322819;28;20044;-76
2022/06/16 15:21:12;;;;;;;13.25;6.78;;;;;;;;;;6322924;28;20056;-77
2022/06/16 15:24:14;;;;;;;8.25;7.35;;;;;;;;;;6325636;28;20044;-76
2022/06/16 15:27:26;;;;;;;8.27;7.00;;;;;;;;;;6325942;28;20048;-75
2022/06/16 15:30:29;;;;;;;;;;;;;;;;;;6324109;28;20063;-75
2022/06/16 15:36:51;;;;;;;12.45;7.47;;;;;;;;;;6322084;28;20119;-76
2022/06/16 15:39:53;;;;;;;13.68;8.05;;;;;;;;;;6326777;28;20047;-75
2022/06/16 15:42:56;;;;;;;8.25;7.30;;;;;;;;;;6324263;28;20056;-74
2022/06/16 15:46:00;;;;;;;11.32;8.05;;;;;;;;;;6322339;28;20051;-75
2022/06/16 15:49:02;;;;;;;13.98;8.45;;;;;;;;;;6324748;28;20059;-75
2022/06/16 15:52:06;;;;;;;11.45;8.15;;;;;;;;;;6316913;28;20059;-74
2022/06/16 15:55:10;;;;;;;9.23;7.70;;;;;;;;;;6325027;28;20347;-75
2022/06/16 15:58:16;;;;;;;9.77;7.97;;;;;;;;;;6323981;28;20999;-75
2022/06/16 16:01:17;;;;;;;13.80;7.72;;;;;;;;;;6322599;28;20056;-75
2022/06/16 16:04:24;;;;;;;9.13;7.68;;;;;;;;;;6320429;28;20051;-75
2022/06/16 16:07:27;;;;;;;10.80;8.05;;;;;;;;;;6326388;28;20051;-75
2022/06/16 16:10:30;;;;;;;12.68;8.23;;;;;;;;;;6322384;28;20056;-76
2022/06/16 16:13:53;;;;;;;9.43;7.35;;;;;;;;;;6322729;28;20062;-77
2022/06/16 16:17:04;;;;;;;8.48;7.18;;;;;;;;;;6323801;28;20243;-75
2022/06/16 16:20:06;;;;;;;9.60;7.25;;;;;;;;;;6326837;28;20121;-75
2022/06/16 16:23:16;;;;;;;8.25;6.95;;;;;;;;;;6321177;28;20044;-74
2022/06/16 16:26:20;;;;;;;10.57;7.35;;;;;;;;;;6321126;28;20082;-76
2022/06/16 16:29:23;;;;;;;13.45;7.75;;;;;;;;;;6321797;28;20265;-76
2022/06/16 16:32:28;;;;;;;11.45;7.82;;;;;;;;;;6321389;28;20052;-76
2022/06/16 16:35:29;;;;;;;8.82;7.30;;;;;;;;;;6324786;28;20051;-77
2022/06/16 16:38:37;;;;;;;9.38;7.22;;;;;;;;;;6324853;28;20055;-77
2022/06/16 16:45:24;;;;;;;9.52;7.55;;;;;;;;;;6324548;28;20048;-76
2022/06/16 16:48:28;;;;;;;10.25;7.43;;;;;;;;;;6319662;28;20048;-76
2022/06/16 16:51:34;;;;;;;11.57;7.75;;;;;;;;;;6321130;28;20213;-75
2022/06/16 16:54:36;;;;;;;11.13;7.60;;;;;;;;;;6324174;28;20040;-77
2022/06/16 16:57:38;;;;;;;8.23;7.40;;;;;;;;;;6324372;28;20043;-76
2022/06/16 17:00:41;;;;;;;9.57;7.90;;;;;;;;;;6319331;28;20048;-75
2022/06/16 17:03:43;;;;;;;12.85;6.97;;;;;;;;;;6320102;28;20043;-76
2022/06/16 17:06:46;;;;;;;11.38;7.30;;;;;;;;;;6321655;28;20056;-76
2022/06/16 17:09:48;;;;;;;8.25;7.10;;;;;;;;;;6319116;28;20052;-74
2022/06/16 17:12:51;;;;;;;11.60;7.77;;;;;;;;;;6322595;28;20048;-76
2022/06/16 17:15:54;;;;;;;8.85;7.35;;;;;;;;;;6324213;28;20052;-77
2022/06/16 17:18:57;;;;;;;18.15;7.75;;;;;;;;;;6319259;28;20235;-76
2022/06/16 17:21:59;;;;;;;11.65;7.97;;;;;;;;;;6317825;28;20063;-76
2022/06/16 17:25:02;;;;;;;13.75;7.30;;;;;;;;;;6319045;28;20044;-77
2022/06/16 17:28:04;;;;;;;8.75;7.47;;;;;;;;;;6320007;28;20107;-78
2022/06/16 17:31:08;;;;;;;13.52;7.00;;;;;;;;;;6322523;28;20051;-75
2022/06/16 17:34:12;;;;;;;12.48;6.75;;;;;;;;;;6321743;28;20043;-77
2022/06/16 17:37:22;;;;;;;11.30;6.43;;;;;;;;;;6324265;28;20143;-78
2022/06/16 17:40:25;;;;;;;10.73;6.82;;;;;;;;;;6318988;28;20056;-75
2022/06/16 17:43:27;;;;;;;13.77;6.00;;;;;;;;;;6323659;28;20048;-77
2022/06/16 17:46:30;;;;;;;17.57;6.90;;;;;;;;;;6323436;28;20055;-75
2022/06/16 17:49:32;;;;;;;9.50;5.75;;;;;;;;;;6329559;28;20634;-78
2022/06/16 18:02:35;;;;;;;7.45;4.57;;;;;;;;;;6326802;28;20339;-78
2022/06/16 18:05:38;;;;;;;12.90;4.40;;;;;;;;;;6324790;28;20071;-73
2022/06/16 18:08:40;;;;;;;;;;;;;;;;;;6328710;28;20066;-73
2022/06/16 18:11:42;;;;;;;6.80;4.15;;;;;;;;;;6325923;28;19927;-75
2022/06/16 18:14:43;;;;;;;7.70;4.70;;;;;;;;;;6325467;28;20054;-74
2022/06/16 18:17:46;;;;;;;7.27;3.80;;;;;;;;;;6326548;28;20450;-76
2022/06/16 18:20:51;;;;;;;11.32;4.53;;;;;;;;;;6316970;28;20461;-73
2022/06/16 18:23:55;;;;;;;12.35;4.30;;;;;;;;;;6321376;28;20056;-75
2022/06/16 18:27:00;;;;;;;9.77;4.18;;;;;;;;;;6322822;28;20060;-73
2022/06/16 18:30:04;;;;;;;9.55;3.85;;;;;;;;;;6320660;28;20109;-73
2022/06/16 18:33:13;;;;;;;8.27;3.78;;;;;;;;;;6318653;28;20327;-76
2022/06/16 18:36:15;;;;;;;7.28;3.53;;;;;;;;;;6321879;28;20044;-76
2022/06/16 18:39:17;;;;;;;7.70;3.83;;;;;;;;;;6321785;28;20904;-76
2022/06/16 18:42:19;;;;;;;8.98;3.97;;;;;;;;;;6322394;28;20060;-76
2022/06/16 18:45:21;;;;;;;12.17;4.30;;;;;;;;;;6325799;28;20052;-75
2022/06/16 18:48:24;;;;;;;9.20;4.50;;;;;;;;;;6328653;28;20458;-76
2022/06/16 18:51:27;;;;;;;11.95;5.00;;;;;;;;;;6323815;28;20434;-76
2022/06/16 18:54:29;;;;;;;10.60;4.70;;;;;;;;;;6321935;28;20084;-75
2022/06/16 18:57:32;;;;;;;10.73;4.23;;;;;;;;;;6324757;28;20044;-76